sensor_id;sensor_type;location;lat;lon;timestamp;temperature;humidity
72883;DHT22;61017;37.812;-122.286;2023-12-28T00:00:10;17.90;77.70
72883;DHT22;61017;37.812;-122.286;2023-12-28T00:01:41;17.90;78.10
72883;DHT22;61017;37.812;-122.286;2023-12-28T00:03:12;17.90;78.10
72883;DHT22;61017;37.812;-122.286;2023-12-28T00:04:43;17.90;78.10
72883;DHT22;61017;37.812;-122.286;2023-12-28T00:06:17;17.90;78.10
72883;DHT22;61017;37.812;-122.286;2023-12-28T00:07:48;17.90;78.20
72883;DHT22;61017;37.812;-122.286;2023-12-28T00:09:19;17.90;78.30
72883;DHT22;61017;37.812;-122.286;2023-12-28T00:10:50;17.90;78.40
72883;DHT22;61017;37.812;-122.286;2023-12-28T00:12:21;17.90;78.80
72883;DHT22;61017;37.812;-122.286;2023-12-28T00:13:52;17.90;78.60
72883;DHT22;61017;37.812;-122.286;2023-12-28T00:15:23;17.90;78.60
72883;DHT22;61017;37.812;-122.286;2023-12-28T00:16:54;17.90;78.80
72883;DHT22;61017;37.812;-122.286;2023-12-28T00:18:25;17.90;79.10
72883;DHT22;61017;37.812;-122.286;2023-12-28T00:19:56;17.90;79.60
72883;DHT22;61017;37.812;-122.286;2023-12-28T00:21:27;17.80;78.80
72883;DHT22;61017;37.812;-122.286;2023-12-28T00:22:58;17.80;78.90
72883;DHT22;61017;37.812;-122.286;2023-12-28T00:24:29;17.80;79.00
72883;DHT22;61017;37.812;-122.286;2023-12-28T00:26:01;17.80;79.70
72883;DHT22;61017;37.812;-122.286;2023-12-28T00:27:32;17.80;79.10
72883;DHT22;61017;37.812;-122.286;2023-12-28T00:29:03;17.80;78.90
72883;DHT22;61017;37.812;-122.286;2023-12-28T00:30:34;17.80;78.90
72883;DHT22;61017;37.812;-122.286;2023-12-28T00:32:05;17.80;78.80
72883;DHT22;61017;37.812;-122.286;2023-12-28T00:33:36;17.80;78.80
72883;DHT22;61017;37.812;-122.286;2023-12-28T00:35:07;17.80;78.90
72883;DHT22;61017;37.812;-122.286;2023-12-28T00:36:38;17.80;78.80
72883;DHT22;61017;37.812;-122.286;2023-12-28T00:38:09;17.80;79.00
72883;DHT22;61017;37.812;-122.286;2023-12-28T00:39:40;17.80;79.10
72883;DHT22;61017;37.812;-122.286;2023-12-28T00:41:12;17.80;79.30
72883;DHT22;61017;37.812;-122.286;2023-12-28T00:42:43;17.80;79.40
72883;DHT22;61017;37.812;-122.286;2023-12-28T00:44:14;17.70;79.40
72883;DHT22;61017;37.812;-122.286;2023-12-28T00:45:45;17.80;79.40
72883;DHT22;61017;37.812;-122.286;2023-12-28T00:47:16;17.70;79.50
72883;DHT22;61017;37.812;-122.286;2023-12-28T00:48:47;17.80;79.50
72883;DHT22;61017;37.812;-122.286;2023-12-28T00:50:18;17.80;79.60
72883;DHT22;61017;37.812;-122.286;2023-12-28T00:51:49;17.80;79.60
72883;DHT22;61017;37.812;-122.286;2023-12-28T00:53:20;17.70;79.40
72883;DHT22;61017;37.812;-122.286;2023-12-28T00:54:51;17.70;79.40
72883;DHT22;61017;37.812;-122.286;2023-12-28T00:56:22;17.70;79.40
72883;DHT22;61017;37.812;-122.286;2023-12-28T00:57:53;17.70;79.30
72883;DHT22;61017;37.812;-122.286;2023-12-28T00:59:24;17.70;79.60
72883;DHT22;61017;37.812;-122.286;2023-12-28T01:00:55;17.70;79.70
72883;DHT22;61017;37.812;-122.286;2023-12-28T01:02:27;17.70;79.60
72883;DHT22;61017;37.812;-122.286;2023-12-28T01:03:58;17.70;79.60
72883;DHT22;61017;37.812;-122.286;2023-12-28T01:05:29;17.70;79.50
72883;DHT22;61017;37.812;-122.286;2023-12-28T01:07:00;17.70;79.40
72883;DHT22;61017;37.812;-122.286;2023-12-28T01:08:31;17.70;79.30
72883;DHT22;61017;37.812;-122.286;2023-12-28T01:10:02;17.70;79.30
72883;DHT22;61017;37.812;-122.286;2023-12-28T01:11:33;17.70;79.50
72883;DHT22;61017;37.812;-122.286;2023-12-28T01:13:05;17.70;79.70
72883;DHT22;61017;37.812;-122.286;2023-12-28T01:14:36;17.70;79.60
72883;DHT22;61017;37.812;-122.286;2023-12-28T01:16:07;17.70;79.70
72883;DHT22;61017;37.812;-122.286;2023-12-28T01:17:38;17.70;79.50
72883;DHT22;61017;37.812;-122.286;2023-12-28T01:19:09;17.70;79.50
72883;DHT22;61017;37.812;-122.286;2023-12-28T01:20:40;17.70;79.50
72883;DHT22;61017;37.812;-122.286;2023-12-28T01:22:11;17.70;79.50
72883;DHT22;61017;37.812;-122.286;2023-12-28T01:23:42;17.70;79.60
72883;DHT22;61017;37.812;-122.286;2023-12-28T01:25:13;17.60;79.60
72883;DHT22;61017;37.812;-122.286;2023-12-28T01:26:44;17.70;79.70
72883;DHT22;61017;37.812;-122.286;2023-12-28T01:28:15;17.70;79.90
72883;DHT22;61017;37.812;-122.286;2023-12-28T01:29:46;17.70;79.80
72883;DHT22;61017;37.812;-122.286;2023-12-28T01:31:17;17.70;80.00
72883;DHT22;61017;37.812;-122.286;2023-12-28T01:32:48;17.70;80.30
72883;DHT22;61017;37.812;-122.286;2023-12-28T01:34:19;17.70;81.00
72883;DHT22;61017;37.812;-122.286;2023-12-28T01:35:51;17.70;80.50
72883;DHT22;61017;37.812;-122.286;2023-12-28T01:37:22;17.70;80.40
72883;DHT22;61017;37.812;-122.286;2023-12-28T01:38:53;17.80;78.50
72883;DHT22;61017;37.812;-122.286;2023-12-28T01:40:24;17.90;76.00
72883;DHT22;61017;37.812;-122.286;2023-12-28T01:41:55;18.10;74.10
72883;DHT22;61017;37.812;-122.286;2023-12-28T01:43:26;18.30;72.20
72883;DHT22;61017;37.812;-122.286;2023-12-28T01:44:57;18.50;70.90
72883;DHT22;61017;37.812;-122.286;2023-12-28T01:46:28;18.70;69.50
72883;DHT22;61017;37.812;-122.286;2023-12-28T01:47:59;18.80;68.10
72883;DHT22;61017;37.812;-122.286;2023-12-28T01:49:31;18.90;67.00
72883;DHT22;61017;37.812;-122.286;2023-12-28T01:51:02;18.90;66.30
72883;DHT22;61017;37.812;-122.286;2023-12-28T01:52:33;19.00;65.80
72883;DHT22;61017;37.812;-122.286;2023-12-28T01:54:05;19.00;65.30
72883;DHT22;61017;37.812;-122.286;2023-12-28T01:55:36;19.10;64.90
72883;DHT22;61017;37.812;-122.286;2023-12-28T01:57:07;19.10;64.70
72883;DHT22;61017;37.812;-122.286;2023-12-28T01:58:38;19.00;64.90
72883;DHT22;61017;37.812;-122.286;2023-12-28T02:00:10;19.00;65.10
72883;DHT22;61017;37.812;-122.286;2023-12-28T02:01:42;18.90;65.10
72883;DHT22;61017;37.812;-122.286;2023-12-28T02:03:13;18.90;65.30
72883;DHT22;61017;37.812;-122.286;2023-12-28T02:04:44;18.90;65.40
72883;DHT22;61017;37.812;-122.286;2023-12-28T02:06:16;18.80;65.30
72883;DHT22;61017;37.812;-122.286;2023-12-28T02:07:47;18.70;66.50
72883;DHT22;61017;37.812;-122.286;2023-12-28T02:09:18;18.70;66.70
72883;DHT22;61017;37.812;-122.286;2023-12-28T02:10:49;18.90;65.10
72883;DHT22;61017;37.812;-122.286;2023-12-28T02:12:20;19.00;63.70
72883;DHT22;61017;37.812;-122.286;2023-12-28T02:13:51;19.10;62.90
72883;DHT22;61017;37.812;-122.286;2023-12-28T02:15:23;19.20;62.10
72883;DHT22;61017;37.812;-122.286;2023-12-28T02:16:56;19.40;61.40
72883;DHT22;61017;37.812;-122.286;2023-12-28T02:18:30;19.40;60.60
72883;DHT22;61017;37.812;-122.286;2023-12-28T02:20:03;19.50;60.10
72883;DHT22;61017;37.812;-122.286;2023-12-28T02:21:36;19.50;59.70
72883;DHT22;61017;37.812;-122.286;2023-12-28T02:23:07;19.50;59.50
72883;DHT22;61017;37.812;-122.286;2023-12-28T02:26:27;19.50;59.20
72883;DHT22;61017;37.812;-122.286;2023-12-28T02:27:58;19.50;59.10
72883;DHT22;61017;37.812;-122.286;2023-12-28T02:29:30;19.50;59.20
72883;DHT22;61017;37.812;-122.286;2023-12-28T02:31:01;19.40;59.30
72883;DHT22;61017;37.812;-122.286;2023-12-28T02:34:12;19.30;59.80
72883;DHT22;61017;37.812;-122.286;2023-12-28T02:36:02;19.20;60.10
72883;DHT22;61017;37.812;-122.286;2023-12-28T02:37:35;19.20;60.10
72883;DHT22;61017;37.812;-122.286;2023-12-28T02:39:07;19.10;60.40
72883;DHT22;61017;37.812;-122.286;2023-12-28T02:40:40;19.00;61.30
72883;DHT22;61017;37.812;-122.286;2023-12-28T02:42:11;19.00;61.70
72883;DHT22;61017;37.812;-122.286;2023-12-28T02:43:42;19.20;60.20
72883;DHT22;61017;37.812;-122.286;2023-12-28T02:45:13;19.30;59.50
72883;DHT22;61017;37.812;-122.286;2023-12-28T02:46:44;19.40;58.90
72883;DHT22;61017;37.812;-122.286;2023-12-28T02:48:15;19.50;58.50
72883;DHT22;61017;37.812;-122.286;2023-12-28T02:49:46;19.60;58.20
72883;DHT22;61017;37.812;-122.286;2023-12-28T02:51:18;19.70;57.90
72883;DHT22;61017;37.812;-122.286;2023-12-28T02:52:49;19.70;57.70
72883;DHT22;61017;37.812;-122.286;2023-12-28T02:54:20;19.70;57.40
72883;DHT22;61017;37.812;-122.286;2023-12-28T02:55:51;19.70;57.20
72883;DHT22;61017;37.812;-122.286;2023-12-28T02:57:22;19.70;57.50
72883;DHT22;61017;37.812;-122.286;2023-12-28T02:58:53;19.60;59.10
72883;DHT22;61017;37.812;-122.286;2023-12-28T03:00:24;19.50;58.50
72883;DHT22;61017;37.812;-122.286;2023-12-28T03:01:55;19.60;58.00
72883;DHT22;61017;37.812;-122.286;2023-12-28T03:03:26;19.70;57.70
72883;DHT22;61017;37.812;-122.286;2023-12-28T03:04:57;19.70;57.40
72883;DHT22;61017;37.812;-122.286;2023-12-28T03:06:28;19.80;57.10
72883;DHT22;61017;37.812;-122.286;2023-12-28T03:07:59;19.80;57.00
72883;DHT22;61017;37.812;-122.286;2023-12-28T03:09:30;19.80;56.70
72883;DHT22;61017;37.812;-122.286;2023-12-28T03:11:01;19.80;56.60
72883;DHT22;61017;37.812;-122.286;2023-12-28T03:12:32;19.70;58.40
72883;DHT22;61017;37.812;-122.286;2023-12-28T03:14:03;19.60;58.00
72883;DHT22;61017;37.812;-122.286;2023-12-28T03:15:34;19.70;57.40
72883;DHT22;61017;37.812;-122.286;2023-12-28T03:17:05;19.80;57.10
72883;DHT22;61017;37.812;-122.286;2023-12-28T03:18:37;19.80;56.90
72883;DHT22;61017;37.812;-122.286;2023-12-28T03:20:08;19.90;56.60
72883;DHT22;61017;37.812;-122.286;2023-12-28T03:21:39;19.90;56.40
72883;DHT22;61017;37.812;-122.286;2023-12-28T03:23:11;19.90;56.60
72883;DHT22;61017;37.812;-122.286;2023-12-28T03:24:42;19.70;58.00
72883;DHT22;61017;37.812;-122.286;2023-12-28T03:26:13;19.70;57.40
72883;DHT22;61017;37.812;-122.286;2023-12-28T03:27:44;19.80;57.70
72883;DHT22;61017;37.812;-122.286;2023-12-28T03:29:16;19.90;56.80
72883;DHT22;61017;37.812;-122.286;2023-12-28T03:30:47;19.90;56.70
72883;DHT22;61017;37.812;-122.286;2023-12-28T03:32:18;19.90;56.40
72883;DHT22;61017;37.812;-122.286;2023-12-28T03:33:49;19.90;56.10
72883;DHT22;61017;37.812;-122.286;2023-12-28T03:35:20;19.90;57.00
72883;DHT22;61017;37.812;-122.286;2023-12-28T03:36:51;19.70;57.50
72883;DHT22;61017;37.812;-122.286;2023-12-28T03:38:22;19.80;57.00
72883;DHT22;61017;37.812;-122.286;2023-12-28T03:39:53;19.90;56.70
72883;DHT22;61017;37.812;-122.286;2023-12-28T03:41:24;19.90;56.50
72883;DHT22;61017;37.812;-122.286;2023-12-28T03:42:55;19.90;56.20
72883;DHT22;61017;37.812;-122.286;2023-12-28T03:44:26;20.00;56.10
72883;DHT22;61017;37.812;-122.286;2023-12-28T03:45:57;20.00;56.30
72883;DHT22;61017;37.812;-122.286;2023-12-28T03:47:28;19.80;57.70
72883;DHT22;61017;37.812;-122.286;2023-12-28T03:48:59;19.80;57.10
72883;DHT22;61017;37.812;-122.286;2023-12-28T03:50:30;19.90;56.70
72883;DHT22;61017;37.812;-122.286;2023-12-28T03:52:01;19.90;56.60
72883;DHT22;61017;37.812;-122.286;2023-12-28T03:53:33;20.00;57.10
72883;DHT22;61017;37.812;-122.286;2023-12-28T03:55:04;20.00;56.10
72883;DHT22;61017;37.812;-122.286;2023-12-28T03:56:35;20.00;55.90
72883;DHT22;61017;37.812;-122.286;2023-12-28T03:58:06;19.90;56.90
72883;DHT22;61017;37.812;-122.286;2023-12-28T03:59:37;19.80;57.20
72883;DHT22;61017;37.812;-122.286;2023-12-28T04:01:09;19.90;56.70
72883;DHT22;61017;37.812;-122.286;2023-12-28T04:02:40;19.90;56.60
72883;DHT22;61017;37.812;-122.286;2023-12-28T04:04:11;19.90;56.20
72883;DHT22;61017;37.812;-122.286;2023-12-28T04:05:43;20.00;56.00
72883;DHT22;61017;37.812;-122.286;2023-12-28T04:07:14;20.00;55.80
72883;DHT22;61017;37.812;-122.286;2023-12-28T04:08:45;20.10;56.10
72883;DHT22;61017;37.812;-122.286;2023-12-28T04:10:19;19.90;57.20
72883;DHT22;61017;37.812;-122.286;2023-12-28T04:11:50;19.90;56.40
72883;DHT22;61017;37.812;-122.286;2023-12-28T04:13:21;19.90;56.20
72883;DHT22;61017;37.812;-122.286;2023-12-28T04:14:52;20.00;56.00
72883;DHT22;61017;37.812;-122.286;2023-12-28T04:16:23;20.10;55.80
72883;DHT22;61017;37.812;-122.286;2023-12-28T04:17:54;20.10;55.50
72883;DHT22;61017;37.812;-122.286;2023-12-28T04:19:25;20.10;55.30
72883;DHT22;61017;37.812;-122.286;2023-12-28T04:20:56;20.00;56.50
72883;DHT22;61017;37.812;-122.286;2023-12-28T04:22:27;19.90;56.50
72883;DHT22;61017;37.812;-122.286;2023-12-28T04:23:58;20.00;56.10
72883;DHT22;61017;37.812;-122.286;2023-12-28T04:25:29;20.00;55.80
72883;DHT22;61017;37.812;-122.286;2023-12-28T04:27:00;20.10;55.70
72883;DHT22;61017;37.812;-122.286;2023-12-28T04:28:31;20.10;55.50
72883;DHT22;61017;37.812;-122.286;2023-12-28T04:30:03;20.10;55.20
72883;DHT22;61017;37.812;-122.286;2023-12-28T04:31:39;20.10;55.90
72883;DHT22;61017;37.812;-122.286;2023-12-28T04:33:10;19.80;56.70
72883;DHT22;61017;37.812;-122.286;2023-12-28T04:34:41;19.70;57.80
72883;DHT22;61017;37.812;-122.286;2023-12-28T04:36:12;19.50;58.30
72883;DHT22;61017;37.812;-122.286;2023-12-28T04:37:43;19.30;59.60
72883;DHT22;61017;37.812;-122.286;2023-12-28T04:39:14;19.20;60.70
72883;DHT22;61017;37.812;-122.286;2023-12-28T04:40:45;19.10;61.00
72883;DHT22;61017;37.812;-122.286;2023-12-28T04:42:16;19.00;62.00
72883;DHT22;61017;37.812;-122.286;2023-12-28T04:43:47;18.90;62.30
72883;DHT22;61017;37.812;-122.286;2023-12-28T04:45:19;18.80;63.10
72883;DHT22;61017;37.812;-122.286;2023-12-28T04:46:50;18.80;63.60
72883;DHT22;61017;37.812;-122.286;2023-12-28T04:48:21;18.70;64.50
72883;DHT22;61017;37.812;-122.286;2023-12-28T04:49:52;18.70;64.70
72883;DHT22;61017;37.812;-122.286;2023-12-28T04:51:23;18.70;65.00
72883;DHT22;61017;37.812;-122.286;2023-12-28T04:52:54;18.60;65.10
72883;DHT22;61017;37.812;-122.286;2023-12-28T04:54:25;18.60;65.20
72883;DHT22;61017;37.812;-122.286;2023-12-28T04:55:56;18.50;65.30
72883;DHT22;61017;37.812;-122.286;2023-12-28T04:57:27;18.50;65.70
72883;DHT22;61017;37.812;-122.286;2023-12-28T04:58:58;18.50;65.70
72883;DHT22;61017;37.812;-122.286;2023-12-28T05:00:29;18.50;66.50
72883;DHT22;61017;37.812;-122.286;2023-12-28T05:02:00;18.40;66.50
72883;DHT22;61017;37.812;-122.286;2023-12-28T05:03:31;18.40;66.90
72883;DHT22;61017;37.812;-122.286;2023-12-28T05:05:02;18.40;67.10
72883;DHT22;61017;37.812;-122.286;2023-12-28T05:06:33;18.40;67.50
72883;DHT22;61017;37.812;-122.286;2023-12-28T05:08:05;18.40;67.40
72883;DHT22;61017;37.812;-122.286;2023-12-28T05:09:36;18.40;67.80
72883;DHT22;61017;37.812;-122.286;2023-12-28T05:11:07;18.40;67.50
72883;DHT22;61017;37.812;-122.286;2023-12-28T05:12:38;18.30;67.50
72883;DHT22;61017;37.812;-122.286;2023-12-28T05:14:09;18.30;67.80
72883;DHT22;61017;37.812;-122.286;2023-12-28T05:15:40;18.30;68.20
72883;DHT22;61017;37.812;-122.286;2023-12-28T05:17:11;18.30;68.60
72883;DHT22;61017;37.812;-122.286;2023-12-28T05:18:42;18.30;68.50
72883;DHT22;61017;37.812;-122.286;2023-12-28T05:20:13;18.30;68.90
72883;DHT22;61017;37.812;-122.286;2023-12-28T05:21:44;18.30;68.80
72883;DHT22;61017;37.812;-122.286;2023-12-28T05:23:15;18.30;68.80
72883;DHT22;61017;37.812;-122.286;2023-12-28T05:24:46;18.30;69.00
72883;DHT22;61017;37.812;-122.286;2023-12-28T05:26:17;18.30;69.20
72883;DHT22;61017;37.812;-122.286;2023-12-28T05:27:48;18.30;69.20
72883;DHT22;61017;37.812;-122.286;2023-12-28T05:29:19;18.20;69.20
72883;DHT22;61017;37.812;-122.286;2023-12-28T05:30:50;18.20;69.40
72883;DHT22;61017;37.812;-122.286;2023-12-28T05:32:21;18.20;69.50
72883;DHT22;61017;37.812;-122.286;2023-12-28T05:33:52;18.20;69.60
72883;DHT22;61017;37.812;-122.286;2023-12-28T05:35:23;18.20;69.90
72883;DHT22;61017;37.812;-122.286;2023-12-28T05:36:54;18.20;69.80
72883;DHT22;61017;37.812;-122.286;2023-12-28T05:38:25;18.20;69.70
72883;DHT22;61017;37.812;-122.286;2023-12-28T05:39:56;18.20;70.10
72883;DHT22;61017;37.812;-122.286;2023-12-28T05:41:28;18.20;70.30
72883;DHT22;61017;37.812;-122.286;2023-12-28T05:42:59;18.10;70.20
72883;DHT22;61017;37.812;-122.286;2023-12-28T05:44:30;18.10;70.30
72883;DHT22;61017;37.812;-122.286;2023-12-28T05:46:01;18.10;70.30
72883;DHT22;61017;37.812;-122.286;2023-12-28T05:47:32;18.10;70.40
72883;DHT22;61017;37.812;-122.286;2023-12-28T05:49:03;18.10;70.50
72883;DHT22;61017;37.812;-122.286;2023-12-28T05:50:34;18.10;70.50
72883;DHT22;61017;37.812;-122.286;2023-12-28T05:52:05;18.10;70.70
72883;DHT22;61017;37.812;-122.286;2023-12-28T05:53:36;18.10;71.00
72883;DHT22;61017;37.812;-122.286;2023-12-28T05:55:07;18.10;71.20
72883;DHT22;61017;37.812;-122.286;2023-12-28T05:56:38;18.10;71.10
72883;DHT22;61017;37.812;-122.286;2023-12-28T05:58:09;18.10;71.50
72883;DHT22;61017;37.812;-122.286;2023-12-28T05:59:40;18.10;71.40
72883;DHT22;61017;37.812;-122.286;2023-12-28T06:01:11;18.10;71.40
72883;DHT22;61017;37.812;-122.286;2023-12-28T06:02:43;18.10;71.50
72883;DHT22;61017;37.812;-122.286;2023-12-28T06:04:14;18.00;71.30
72883;DHT22;61017;37.812;-122.286;2023-12-28T06:05:45;18.00;71.50
72883;DHT22;61017;37.812;-122.286;2023-12-28T06:07:16;18.00;71.50
72883;DHT22;61017;37.812;-122.286;2023-12-28T06:08:47;18.00;71.70
72883;DHT22;61017;37.812;-122.286;2023-12-28T06:10:18;18.00;71.40
72883;DHT22;61017;37.812;-122.286;2023-12-28T06:11:49;18.00;72.00
72883;DHT22;61017;37.812;-122.286;2023-12-28T06:13:20;18.00;72.20
72883;DHT22;61017;37.812;-122.286;2023-12-28T06:14:51;18.00;71.90
72883;DHT22;61017;37.812;-122.286;2023-12-28T06:16:22;18.00;72.10
72883;DHT22;61017;37.812;-122.286;2023-12-28T06:17:53;18.00;72.20
72883;DHT22;61017;37.812;-122.286;2023-12-28T06:19:24;18.00;72.30
72883;DHT22;61017;37.812;-122.286;2023-12-28T06:20:55;18.00;72.70
72883;DHT22;61017;37.812;-122.286;2023-12-28T06:22:26;18.00;72.60
72883;DHT22;61017;37.812;-122.286;2023-12-28T06:23:57;18.00;72.50
72883;DHT22;61017;37.812;-122.286;2023-12-28T06:25:28;18.00;72.50
72883;DHT22;61017;37.812;-122.286;2023-12-28T06:26:59;18.00;72.70
72883;DHT22;61017;37.812;-122.286;2023-12-28T06:28:30;18.00;72.60
72883;DHT22;61017;37.812;-122.286;2023-12-28T06:30:01;18.00;72.70
72883;DHT22;61017;37.812;-122.286;2023-12-28T06:31:32;18.00;72.90
72883;DHT22;61017;37.812;-122.286;2023-12-28T06:33:03;18.00;73.00
72883;DHT22;61017;37.812;-122.286;2023-12-28T06:34:34;18.00;73.00
72883;DHT22;61017;37.812;-122.286;2023-12-28T06:36:06;18.00;73.20
72883;DHT22;61017;37.812;-122.286;2023-12-28T06:37:37;18.00;74.00
72883;DHT22;61017;37.812;-122.286;2023-12-28T06:39:08;17.90;73.10
72883;DHT22;61017;37.812;-122.286;2023-12-28T06:40:39;18.00;73.30
72883;DHT22;61017;37.812;-122.286;2023-12-28T06:42:10;17.90;73.10
72883;DHT22;61017;37.812;-122.286;2023-12-28T06:43:41;18.00;73.20
72883;DHT22;61017;37.812;-122.286;2023-12-28T06:45:12;18.00;73.40
72883;DHT22;61017;37.812;-122.286;2023-12-28T06:46:43;17.90;73.20
72883;DHT22;61017;37.812;-122.286;2023-12-28T06:48:14;17.90;74.10
72883;DHT22;61017;37.812;-122.286;2023-12-28T06:49:45;17.90;73.40
72883;DHT22;61017;37.812;-122.286;2023-12-28T06:51:17;17.90;73.30
72883;DHT22;61017;37.812;-122.286;2023-12-28T06:52:48;17.90;73.40
72883;DHT22;61017;37.812;-122.286;2023-12-28T06:54:19;17.90;73.30
72883;DHT22;61017;37.812;-122.286;2023-12-28T06:55:50;17.90;73.50
72883;DHT22;61017;37.812;-122.286;2023-12-28T06:57:21;17.90;73.40
72883;DHT22;61017;37.812;-122.286;2023-12-28T06:58:52;17.90;73.60
72883;DHT22;61017;37.812;-122.286;2023-12-28T07:00:23;17.90;73.60
72883;DHT22;61017;37.812;-122.286;2023-12-28T07:01:54;17.90;73.50
72883;DHT22;61017;37.812;-122.286;2023-12-28T07:03:25;17.90;73.90
72883;DHT22;61017;37.812;-122.286;2023-12-28T07:04:56;17.90;73.90
72883;DHT22;61017;37.812;-122.286;2023-12-28T07:06:27;17.90;73.80
72883;DHT22;61017;37.812;-122.286;2023-12-28T07:07:58;17.90;74.00
72883;DHT22;61017;37.812;-122.286;2023-12-28T07:09:29;17.80;74.00
72883;DHT22;61017;37.812;-122.286;2023-12-28T07:11:00;17.90;74.20
72883;DHT22;61017;37.812;-122.286;2023-12-28T07:12:31;17.90;74.10
72883;DHT22;61017;37.812;-122.286;2023-12-28T07:14:03;17.90;74.20
72883;DHT22;61017;37.812;-122.286;2023-12-28T07:15:34;17.90;74.20
72883;DHT22;61017;37.812;-122.286;2023-12-28T07:17:05;17.90;74.40
72883;DHT22;61017;37.812;-122.286;2023-12-28T07:18:36;17.80;74.40
72883;DHT22;61017;37.812;-122.286;2023-12-28T07:20:07;17.90;74.50
72883;DHT22;61017;37.812;-122.286;2023-12-28T07:21:38;17.80;74.60
72883;DHT22;61017;37.812;-122.286;2023-12-28T07:23:09;17.80;74.80
72883;DHT22;61017;37.812;-122.286;2023-12-28T07:24:40;17.80;74.80
72883;DHT22;61017;37.812;-122.286;2023-12-28T07:26:11;17.80;75.10
72883;DHT22;61017;37.812;-122.286;2023-12-28T07:27:42;17.80;75.20
72883;DHT22;61017;37.812;-122.286;2023-12-28T07:29:13;17.80;75.10
72883;DHT22;61017;37.812;-122.286;2023-12-28T07:30:44;17.80;75.40
72883;DHT22;61017;37.812;-122.286;2023-12-28T07:32:15;17.80;75.40
72883;DHT22;61017;37.812;-122.286;2023-12-28T07:33:46;17.80;75.50
72883;DHT22;61017;37.812;-122.286;2023-12-28T07:35:17;17.80;75.40
72883;DHT22;61017;37.812;-122.286;2023-12-28T07:36:49;17.80;75.30
72883;DHT22;61017;37.812;-122.286;2023-12-28T07:38:20;17.80;75.50
72883;DHT22;61017;37.812;-122.286;2023-12-28T07:39:51;17.80;75.30
72883;DHT22;61017;37.812;-122.286;2023-12-28T07:41:22;17.80;75.30
72883;DHT22;61017;37.812;-122.286;2023-12-28T07:42:53;17.80;75.40
72883;DHT22;61017;37.812;-122.286;2023-12-28T07:44:24;17.80;75.40
72883;DHT22;61017;37.812;-122.286;2023-12-28T07:45:55;17.80;75.70
72883;DHT22;61017;37.812;-122.286;2023-12-28T07:47:26;17.80;75.80
72883;DHT22;61017;37.812;-122.286;2023-12-28T07:48:57;17.80;75.70
72883;DHT22;61017;37.812;-122.286;2023-12-28T07:50:28;17.80;75.70
72883;DHT22;61017;37.812;-122.286;2023-12-28T07:51:59;17.80;75.70
72883;DHT22;61017;37.812;-122.286;2023-12-28T07:53:30;17.80;75.80
72883;DHT22;61017;37.812;-122.286;2023-12-28T07:55:02;17.80;75.90
72883;DHT22;61017;37.812;-122.286;2023-12-28T07:56:33;17.80;76.40
72883;DHT22;61017;37.812;-122.286;2023-12-28T07:58:04;17.80;75.80
72883;DHT22;61017;37.812;-122.286;2023-12-28T07:59:35;17.80;76.10
72883;DHT22;61017;37.812;-122.286;2023-12-28T08:01:10;17.80;76.00
72883;DHT22;61017;37.812;-122.286;2023-12-28T08:02:41;17.80;76.10
72883;DHT22;61017;37.812;-122.286;2023-12-28T08:04:12;17.80;76.10
72883;DHT22;61017;37.812;-122.286;2023-12-28T08:05:43;17.80;76.40
72883;DHT22;61017;37.812;-122.286;2023-12-28T08:07:14;17.80;76.30
72883;DHT22;61017;37.812;-122.286;2023-12-28T08:08:45;17.80;76.30
72883;DHT22;61017;37.812;-122.286;2023-12-28T08:10:16;17.80;77.10
72883;DHT22;61017;37.812;-122.286;2023-12-28T08:11:47;17.70;76.30
72883;DHT22;61017;37.812;-122.286;2023-12-28T08:13:18;17.80;76.70
72883;DHT22;61017;37.812;-122.286;2023-12-28T08:14:49;17.70;76.60
72883;DHT22;61017;37.812;-122.286;2023-12-28T08:16:21;17.70;76.80
72883;DHT22;61017;37.812;-122.286;2023-12-28T08:17:52;17.70;76.70
72883;DHT22;61017;37.812;-122.286;2023-12-28T08:19:23;17.70;76.90
72883;DHT22;61017;37.812;-122.286;2023-12-28T08:20:54;17.70;77.00
72883;DHT22;61017;37.812;-122.286;2023-12-28T08:22:25;17.70;76.90
72883;DHT22;61017;37.812;-122.286;2023-12-28T08:23:56;17.70;77.00
72883;DHT22;61017;37.812;-122.286;2023-12-28T08:25:27;17.70;77.00
72883;DHT22;61017;37.812;-122.286;2023-12-28T08:26:58;17.70;77.30
72883;DHT22;61017;37.812;-122.286;2023-12-28T08:28:29;17.70;77.30
72883;DHT22;61017;37.812;-122.286;2023-12-28T08:30:00;17.70;77.60
72883;DHT22;61017;37.812;-122.286;2023-12-28T08:31:31;17.70;77.70
72883;DHT22;61017;37.812;-122.286;2023-12-28T08:33:02;17.70;77.80
72883;DHT22;61017;37.812;-122.286;2023-12-28T08:34:34;17.70;77.70
72883;DHT22;61017;37.812;-122.286;2023-12-28T08:36:05;17.70;77.70
72883;DHT22;61017;37.812;-122.286;2023-12-28T08:37:36;17.70;77.70
72883;DHT22;61017;37.812;-122.286;2023-12-28T08:39:07;17.70;77.90
72883;DHT22;61017;37.812;-122.286;2023-12-28T08:40:39;17.70;78.00
72883;DHT22;61017;37.812;-122.286;2023-12-28T08:42:10;17.70;78.20
72883;DHT22;61017;37.812;-122.286;2023-12-28T08:43:41;17.70;78.40
72883;DHT22;61017;37.812;-122.286;2023-12-28T08:45:12;17.70;78.50
72883;DHT22;61017;37.812;-122.286;2023-12-28T08:46:43;17.70;78.50
72883;DHT22;61017;37.812;-122.286;2023-12-28T08:48:14;17.70;78.60
72883;DHT22;61017;37.812;-122.286;2023-12-28T08:49:45;17.70;78.60
72883;DHT22;61017;37.812;-122.286;2023-12-28T08:51:16;17.70;78.50
72883;DHT22;61017;37.812;-122.286;2023-12-28T08:52:47;17.70;78.80
72883;DHT22;61017;37.812;-122.286;2023-12-28T08:54:18;17.70;78.50
72883;DHT22;61017;37.812;-122.286;2023-12-28T08:55:49;17.70;78.60
72883;DHT22;61017;37.812;-122.286;2023-12-28T08:57:20;17.70;78.60
72883;DHT22;61017;37.812;-122.286;2023-12-28T08:58:51;17.70;78.90
72883;DHT22;61017;37.812;-122.286;2023-12-28T09:00:22;17.70;78.80
72883;DHT22;61017;37.812;-122.286;2023-12-28T09:01:54;17.60;78.40
72883;DHT22;61017;37.812;-122.286;2023-12-28T09:03:25;17.70;79.40
72883;DHT22;61017;37.812;-122.286;2023-12-28T09:04:57;17.70;78.70
72883;DHT22;61017;37.812;-122.286;2023-12-28T09:06:28;17.70;78.70
72883;DHT22;61017;37.812;-122.286;2023-12-28T09:07:59;17.70;78.70
72883;DHT22;61017;37.812;-122.286;2023-12-28T09:09:30;17.70;78.60
72883;DHT22;61017;37.812;-122.286;2023-12-28T09:11:01;17.70;78.50
72883;DHT22;61017;37.812;-122.286;2023-12-28T09:12:32;17.70;78.60